sensor_id;sensor_type;location;lat;lon;timestamp;P1;durP1;ratioP1;P2;durP2;ratioP2
53833;SDS011;39735;51.432;5.482;2022-07-06T00:02:20;10.15;;;2.30;;
53833;SDS011;39735;51.432;5.482;2022-07-06T00:04:45;9.98;;;2.33;;
53833;SDS011;39735;51.432;5.482;2022-07-06T00:07:11;6.70;;;1.88;;
53833;SDS011;39735;51.432;5.482;2022-07-06T00:09:36;3.55;;;1.98;;
53833;SDS011;39735;51.432;5.482;2022-07-06T00:12:01;13.93;;;2.40;;
53833;SDS011;39735;51.432;5.482;2022-07-06T00:14:27;11.82;;;2.22;;
53833;SDS011;39735;51.432;5.482;2022-07-06T00:16:52;4.47;;;1.98;;
53833;SDS011;39735;51.432;5.482;2022-07-06T00:19:18;5.88;;;2.20;;
53833;SDS011;39735;51.432;5.482;2022-07-06T00:21:43;13.43;;;2.42;;
53833;SDS011;39735;51.432;5.482;2022-07-06T00:24:09;6.78;;;3.45;;
53833;SDS011;39735;51.432;5.482;2022-07-06T00:26:34;8.63;;;2.90;;
53833;SDS011;39735;51.432;5.482;2022-07-06T00:28:59;11.95;;;1.88;;
53833;SDS011;39735;51.432;5.482;2022-07-06T00:31:25;5.05;;;1.80;;
53833;SDS011;39735;51.432;5.482;2022-07-06T00:33:50;12.15;;;2.72;;
53833;SDS011;39735;51.432;5.482;2022-07-06T00:36:16;3.92;;;1.48;;
53833;SDS011;39735;51.432;5.482;2022-07-06T00:38:41;6.28;;;2.38;;
53833;SDS011;39735;51.432;5.482;2022-07-06T00:41:07;5.15;;;2.05;;
53833;SDS011;39735;51.432;5.482;2022-07-06T00:43:51;4.78;;;2.42;;
53833;SDS011;39735;51.432;5.482;2022-07-06T00:46:27;1.63;;;1.55;;
53833;SDS011;39735;51.432;5.482;2022-07-06T00:48:54;2.80;;;1.90;;
53833;SDS011;39735;51.432;5.482;2022-07-06T00:51:19;3.58;;;2.40;;
53833;SDS011;39735;51.432;5.482;2022-07-06T00:53:47;14.13;;;2.35;;
53833;SDS011;39735;51.432;5.482;2022-07-06T00:56:13;15.60;;;2.70;;
53833;SDS011;39735;51.432;5.482;2022-07-06T00:58:39;6.03;;;2.60;;
53833;SDS011;39735;51.432;5.482;2022-07-06T01:01:04;9.02;;;2.45;;
53833;SDS011;39735;51.432;5.482;2022-07-06T01:03:30;7.55;;;2.53;;
53833;SDS011;39735;51.432;5.482;2022-07-06T01:05:55;3.45;;;2.72;;
53833;SDS011;39735;51.432;5.482;2022-07-06T01:08:21;15.13;;;2.40;;
53833;SDS011;39735;51.432;5.482;2022-07-06T01:10:46;10.05;;;2.72;;
53833;SDS011;39735;51.432;5.482;2022-07-06T01:13:12;6.55;;;3.22;;
53833;SDS011;39735;51.432;5.482;2022-07-06T01:15:37;6.05;;;2.17;;
53833;SDS011;39735;51.432;5.482;2022-07-06T01:18:03;3.15;;;2.47;;
53833;SDS011;39735;51.432;5.482;2022-07-06T01:20:29;14.02;;;2.63;;
53833;SDS011;39735;51.432;5.482;2022-07-06T01:22:54;18.48;;;2.90;;
53833;SDS011;39735;51.432;5.482;2022-07-06T01:25:23;10.02;;;2.42;;
53833;SDS011;39735;51.432;5.482;2022-07-06T01:27:48;11.45;;;2.20;;
53833;SDS011;39735;51.432;5.482;2022-07-06T01:30:14;2.67;;;2.13;;
53833;SDS011;39735;51.432;5.482;2022-07-06T01:32:41;5.45;;;3.05;;
53833;SDS011;39735;51.432;5.482;2022-07-06T01:35:08;6.10;;;2.17;;
53833;SDS011;39735;51.432;5.482;2022-07-06T01:37:35;6.78;;;3.30;;
53833;SDS011;39735;51.432;5.482;2022-07-06T01:40:01;15.75;;;3.17;;
53833;SDS011;39735;51.432;5.482;2022-07-06T01:42:28;3.33;;;2.45;;
53833;SDS011;39735;51.432;5.482;2022-07-06T01:44:54;8.30;;;2.50;;
53833;SDS011;39735;51.432;5.482;2022-07-06T01:47:19;7.88;;;2.58;;
53833;SDS011;39735;51.432;5.482;2022-07-06T01:49:45;3.35;;;2.10;;
53833;SDS011;39735;51.432;5.482;2022-07-06T01:52:10;4.43;;;2.92;;
53833;SDS011;39735;51.432;5.482;2022-07-06T01:54:36;13.20;;;3.42;;
53833;SDS011;39735;51.432;5.482;2022-07-06T01:57:01;10.07;;;3.47;;
53833;SDS011;39735;51.432;5.482;2022-07-06T01:59:27;10.63;;;2.85;;
53833;SDS011;39735;51.432;5.482;2022-07-06T02:01:52;4.20;;;3.58;;
53833;SDS011;39735;51.432;5.482;2022-07-06T02:04:18;16.77;;;3.97;;
53833;SDS011;39735;51.432;5.482;2022-07-06T02:06:43;8.30;;;4.05;;
53833;SDS011;39735;51.432;5.482;2022-07-06T02:09:08;13.40;;;4.15;;
53833;SDS011;39735;51.432;5.482;2022-07-06T02:11:34;4.68;;;3.72;;
53833;SDS011;39735;51.432;5.482;2022-07-06T02:13:59;5.78;;;3.53;;
53833;SDS011;39735;51.432;5.482;2022-07-06T02:16:25;9.63;;;4.13;;
53833;SDS011;39735;51.432;5.482;2022-07-06T02:18:50;12.60;;;4.07;;
53833;SDS011;39735;51.432;5.482;2022-07-06T02:21:15;8.25;;;4.20;;
53833;SDS011;39735;51.432;5.482;2022-07-06T02:23:41;8.18;;;4.35;;
53833;SDS011;39735;51.432;5.482;2022-07-06T02:26:06;21.08;;;6.72;;
53833;SDS011;39735;51.432;5.482;2022-07-06T02:28:32;7.25;;;4.20;;
53833;SDS011;39735;51.432;5.482;2022-07-06T02:30:57;12.35;;;4.60;;
53833;SDS011;39735;51.432;5.482;2022-07-06T02:33:22;9.80;;;6.05;;
53833;SDS011;39735;51.432;5.482;2022-07-06T02:35:48;4.78;;;4.38;;
53833;SDS011;39735;51.432;5.482;2022-07-06T02:38:13;16.92;;;5.53;;
53833;SDS011;39735;51.432;5.482;2022-07-06T02:40:39;23.02;;;4.82;;
53833;SDS011;39735;51.432;5.482;2022-07-06T02:43:04;9.88;;;5.82;;
53833;SDS011;39735;51.432;5.482;2022-07-06T02:45:30;14.70;;;5.38;;
53833;SDS011;39735;51.432;5.482;2022-07-06T02:47:56;34.85;;;5.07;;
53833;SDS011;39735;51.432;5.482;2022-07-06T02:50:22;7.30;;;4.13;;
53833;SDS011;39735;51.432;5.482;2022-07-06T02:52:48;10.10;;;4.70;;
53833;SDS011;39735;51.432;5.482;2022-07-06T02:55:13;26.42;;;5.45;;
53833;SDS011;39735;51.432;5.482;2022-07-06T02:57:39;13.48;;;4.22;;
53833;SDS011;39735;51.432;5.482;2022-07-06T03:00:04;7.68;;;4.40;;
53833;SDS011;39735;51.432;5.482;2022-07-06T03:02:30;12.40;;;5.00;;
53833;SDS011;39735;51.432;5.482;2022-07-06T03:04:56;14.07;;;5.10;;
53833;SDS011;39735;51.432;5.482;2022-07-06T03:07:22;7.85;;;3.80;;
53833;SDS011;39735;51.432;5.482;2022-07-06T03:09:47;17.95;;;7.35;;
53833;SDS011;39735;51.432;5.482;2022-07-06T03:12:13;10.57;;;5.15;;
53833;SDS011;39735;51.432;5.482;2022-07-06T03:14:38;11.05;;;4.43;;
53833;SDS011;39735;51.432;5.482;2022-07-06T03:17:04;7.18;;;4.00;;
53833;SDS011;39735;51.432;5.482;2022-07-06T03:19:29;18.33;;;4.07;;
53833;SDS011;39735;51.432;5.482;2022-07-06T03:21:54;10.35;;;4.85;;
53833;SDS011;39735;51.432;5.482;2022-07-06T03:24:20;14.10;;;4.50;;
53833;SDS011;39735;51.432;5.482;2022-07-06T03:26:45;13.02;;;4.68;;
53833;SDS011;39735;51.432;5.482;2022-07-06T03:29:10;7.05;;;4.28;;
53833;SDS011;39735;51.432;5.482;2022-07-06T03:31:36;5.15;;;4.60;;
53833;SDS011;39735;51.432;5.482;2022-07-06T03:34:01;15.70;;;4.22;;
53833;SDS011;39735;51.432;5.482;2022-07-06T03:36:27;10.98;;;5.32;;
53833;SDS011;39735;51.432;5.482;2022-07-06T03:38:52;8.15;;;4.32;;
53833;SDS011;39735;51.432;5.482;2022-07-06T03:41:18;7.43;;;4.22;;
53833;SDS011;39735;51.432;5.482;2022-07-06T03:43:43;7.25;;;4.15;;
53833;SDS011;39735;51.432;5.482;2022-07-06T03:46:09;4.20;;;3.80;;
53833;SDS011;39735;51.432;5.482;2022-07-06T03:48:34;12.15;;;3.92;;
53833;SDS011;39735;51.432;5.482;2022-07-06T03:50:59;8.45;;;4.07;;
53833;SDS011;39735;51.432;5.482;2022-07-06T03:53:25;7.97;;;4.82;;
53833;SDS011;39735;51.432;5.482;2022-07-06T03:55:51;10.38;;;3.13;;
53833;SDS011;39735;51.432;5.482;2022-07-06T03:58:35;12.40;;;4.93;;
53833;SDS011;39735;51.432;5.482;2022-07-06T04:01:00;13.27;;;4.18;;
53833;SDS011;39735;51.432;5.482;2022-07-06T04:03:26;5.68;;;3.30;;
53833;SDS011;39735;51.432;5.482;2022-07-06T04:05:51;7.75;;;3.78;;
53833;SDS011;39735;51.432;5.482;2022-07-06T04:08:17;10.85;;;3.67;;
53833;SDS011;39735;51.432;5.482;2022-07-06T04:10:43;10.25;;;5.47;;
53833;SDS011;39735;51.432;5.482;2022-07-06T04:13:08;10.82;;;4.10;;
53833;SDS011;39735;51.432;5.482;2022-07-06T04:15:33;13.65;;;4.03;;
53833;SDS011;39735;51.432;5.482;2022-07-06T04:17:59;16.15;;;6.05;;
53833;SDS011;39735;51.432;5.482;2022-07-06T04:20:24;16.70;;;5.32;;
53833;SDS011;39735;51.432;5.482;2022-07-06T04:22:50;5.50;;;3.63;;
53833;SDS011;39735;51.432;5.482;2022-07-06T04:25:16;13.02;;;4.45;;
53833;SDS011;39735;51.432;5.482;2022-07-06T04:27:42;8.35;;;3.47;;
53833;SDS011;39735;51.432;5.482;2022-07-06T04:30:07;4.72;;;3.38;;
53833;SDS011;39735;51.432;5.482;2022-07-06T04:32:34;18.27;;;4.70;;
53833;SDS011;39735;51.432;5.482;2022-07-06T04:34:59;17.25;;;4.22;;
53833;SDS011;39735;51.432;5.482;2022-07-06T04:37:25;14.07;;;3.90;;
53833;SDS011;39735;51.432;5.482;2022-07-06T04:43:24;7.57;;;3.83;;
53833;SDS011;39735;51.432;5.482;2022-07-06T04:45:50;18.52;;;4.93;;
53833;SDS011;39735;51.432;5.482;2022-07-06T04:48:15;15.23;;;4.28;;
53833;SDS011;39735;51.432;5.482;2022-07-06T04:50:41;9.52;;;4.05;;
53833;SDS011;39735;51.432;5.482;2022-07-06T04:53:06;6.00;;;3.47;;
53833;SDS011;39735;51.432;5.482;2022-07-06T04:55:32;12.95;;;3.67;;
53833;SDS011;39735;51.432;5.482;2022-07-06T04:57:57;12.82;;;3.50;;
53833;SDS011;39735;51.432;5.482;2022-07-06T05:00:22;18.27;;;4.75;;
53833;SDS011;39735;51.432;5.482;2022-07-06T05:02:48;23.25;;;3.97;;
53833;SDS011;39735;51.432;5.482;2022-07-06T05:05:13;25.35;;;3.65;;
53833;SDS011;39735;51.432;5.482;2022-07-06T05:07:39;6.28;;;3.50;;
53833;SDS011;39735;51.432;5.482;2022-07-06T05:10:13;3.90;;;3.17;;
53833;SDS011;39735;51.432;5.482;2022-07-06T05:12:39;23.80;;;3.47;;
53833;SDS011;39735;51.432;5.482;2022-07-06T05:15:04;15.23;;;3.80;;
53833;SDS011;39735;51.432;5.482;2022-07-06T05:17:30;8.18;;;2.75;;
53833;SDS011;39735;51.432;5.482;2022-07-06T05:19:56;6.13;;;1.88;;
53833;SDS011;39735;51.432;5.482;2022-07-06T05:22:21;7.97;;;3.00;;
53833;SDS011;39735;51.432;5.482;2022-07-06T05:24:47;7.50;;;2.75;;
53833;SDS011;39735;51.432;5.482;2022-07-06T05:27:12;7.10;;;2.65;;
53833;SDS011;39735;51.432;5.482;2022-07-06T05:29:37;9.65;;;3.35;;
53833;SDS011;39735;51.432;5.482;2022-07-06T05:32:03;5.60;;;1.88;;
53833;SDS011;39735;51.432;5.482;2022-07-06T05:34:29;4.13;;;1.83;;
53833;SDS011;39735;51.432;5.482;2022-07-06T05:36:54;16.85;;;3.05;;
53833;SDS011;39735;51.432;5.482;2022-07-06T05:39:19;2.50;;;2.20;;
53833;SDS011;39735;51.432;5.482;2022-07-06T05:41:47;7.78;;;1.85;;
53833;SDS011;39735;51.432;5.482;2022-07-06T05:44:13;6.55;;;2.28;;
53833;SDS011;39735;51.432;5.482;2022-07-06T05:46:38;12.20;;;2.83;;
53833;SDS011;39735;51.432;5.482;2022-07-06T05:49:04;6.07;;;2.95;;
53833;SDS011;39735;51.432;5.482;2022-07-06T05:51:48;24.77;;;3.10;;
53833;SDS011;39735;51.432;5.482;2022-07-06T05:54:14;7.47;;;2.13;;
53833;SDS011;39735;51.432;5.482;2022-07-06T05:56:40;5.53;;;1.25;;
53833;SDS011;39735;51.432;5.482;2022-07-06T05:59:05;2.13;;;1.38;;
53833;SDS011;39735;51.432;5.482;2022-07-06T06:01:31;5.20;;;1.48;;
53833;SDS011;39735;51.432;5.482;2022-07-06T06:03:56;4.10;;;1.70;;
53833;SDS011;39735;51.432;5.482;2022-07-06T06:06:21;2.80;;;1.23;;
53833;SDS011;39735;51.432;5.482;2022-07-06T06:08:47;3.83;;;1.20;;
53833;SDS011;39735;51.432;5.482;2022-07-06T06:11:12;6.65;;;1.75;;
53833;SDS011;39735;51.432;5.482;2022-07-06T06:13:37;8.50;;;1.92;;
53833;SDS011;39735;51.432;5.482;2022-07-06T06:16:03;9.75;;;1.10;;
53833;SDS011;39735;51.432;5.482;2022-07-06T06:18:29;1.15;;;1.10;;
53833;SDS011;39735;51.432;5.482;2022-07-06T06:20:54;3.72;;;1.20;;
53833;SDS011;39735;51.432;5.482;2022-07-06T06:23:19;2.80;;;1.23;;
53833;SDS011;39735;51.432;5.482;2022-07-06T06:25:45;4.05;;;0.75;;
53833;SDS011;39735;51.432;5.482;2022-07-06T06:28:10;4.50;;;1.10;;
53833;SDS011;39735;51.432;5.482;2022-07-06T06:30:36;11.82;;;2.00;;
53833;SDS011;39735;51.432;5.482;2022-07-06T06:33:09;11.20;;;5.75;;
53833;SDS011;39735;51.432;5.482;2022-07-06T06:35:36;4.05;;;1.33;;
53833;SDS011;39735;51.432;5.482;2022-07-06T06:38:02;1.17;;;0.77;;
53833;SDS011;39735;51.432;5.482;2022-07-06T06:40:27;16.75;;;1.50;;
53833;SDS011;39735;51.432;5.482;2022-07-06T06:42:53;5.00;;;0.82;;
53833;SDS011;39735;51.432;5.482;2022-07-06T06:45:18;7.97;;;0.95;;
53833;SDS011;39735;51.432;5.482;2022-07-06T06:47:44;7.05;;;0.47;;
53833;SDS011;39735;51.432;5.482;2022-07-06T06:50:09;17.70;;;1.85;;
53833;SDS011;39735;51.432;5.482;2022-07-06T06:52:34;3.35;;;0.88;;
53833;SDS011;39735;51.432;5.482;2022-07-06T06:55:00;3.40;;;1.55;;
53833;SDS011;39735;51.432;5.482;2022-07-06T06:57:25;7.68;;;1.15;;
53833;SDS011;39735;51.432;5.482;2022-07-06T06:59:51;2.45;;;0.73;;
53833;SDS011;39735;51.432;5.482;2022-07-06T07:02:16;10.88;;;2.08;;
53833;SDS011;39735;51.432;5.482;2022-07-06T07:04:42;4.18;;;0.98;;
53833;SDS011;39735;51.432;5.482;2022-07-06T07:07:08;11.05;;;0.85;;
53833;SDS011;39735;51.432;5.482;2022-07-06T07:09:33;35.63;;;2.47;;
53833;SDS011;39735;51.432;5.482;2022-07-06T07:11:58;5.07;;;0.90;;
53833;SDS011;39735;51.432;5.482;2022-07-06T07:14:24;2.67;;;0.65;;
53833;SDS011;39735;51.432;5.482;2022-07-06T07:16:49;8.77;;;0.98;;
53833;SDS011;39735;51.432;5.482;2022-07-06T07:19:15;5.05;;;0.63;;
53833;SDS011;39735;51.432;5.482;2022-07-06T07:21:40;5.78;;;0.85;;
53833;SDS011;39735;51.432;5.482;2022-07-06T07:24:06;5.65;;;1.52;;
53833;SDS011;39735;51.432;5.482;2022-07-06T07:26:32;3.13;;;1.33;;
53833;SDS011;39735;51.432;5.482;2022-07-06T07:28:58;4.43;;;0.45;;
53833;SDS011;39735;51.432;5.482;2022-07-06T07:31:23;9.43;;;0.95;;
53833;SDS011;39735;51.432;5.482;2022-07-06T07:33:48;1.23;;;0.52;;
53833;SDS011;39735;51.432;5.482;2022-07-06T07:36:14;1.95;;;0.52;;
53833;SDS011;39735;51.432;5.482;2022-07-06T07:38:39;11.20;;;0.65;;
53833;SDS011;39735;51.432;5.482;2022-07-06T07:41:04;6.03;;;0.63;;
53833;SDS011;39735;51.432;5.482;2022-07-06T07:43:31;0.13;;;0.13;;
53833;SDS011;39735;51.432;5.482;2022-07-06T07:45:56;1.92;;;0.43;;
53833;SDS011;39735;51.432;5.482;2022-07-06T07:48:22;1.98;;;0.43;;
53833;SDS011;39735;51.432;5.482;2022-07-06T07:50:47;1.60;;;0.38;;
53833;SDS011;39735;51.432;5.482;2022-07-06T07:53:12;3.53;;;0.43;;
53833;SDS011;39735;51.432;5.482;2022-07-06T07:55:38;0.63;;;0.43;;
53833;SDS011;39735;51.432;5.482;2022-07-06T07:58:03;2.10;;;0.55;;
53833;SDS011;39735;51.432;5.482;2022-07-06T08:00:29;16.15;;;0.28;;
53833;SDS011;39735;51.432;5.482;2022-07-06T08:02:54;9.25;;;0.75;;
53833;SDS011;39735;51.432;5.482;2022-07-06T08:05:20;1.55;;;0.35;;
53833;SDS011;39735;51.432;5.482;2022-07-06T08:07:45;0.95;;;0.25;;
53833;SDS011;39735;51.432;5.482;2022-07-06T08:10:11;1.80;;;0.35;;
53833;SDS011;39735;51.432;5.482;2022-07-06T08:12:36;0.20;;;0.20;;
53833;SDS011;39735;51.432;5.482;2022-07-06T08:15:03;2.08;;;0.30;;
53833;SDS011;39735;51.432;5.482;2022-07-06T08:17:29;2.83;;;0.50;;
53833;SDS011;39735;51.432;5.482;2022-07-06T08:19:55;1.75;;;0.85;;
53833;SDS011;39735;51.432;5.482;2022-07-06T08:22:20;2.53;;;0.55;;
53833;SDS011;39735;51.432;5.482;2022-07-06T08:24:45;6.30;;;0.55;;
53833;SDS011;39735;51.432;5.482;2022-07-06T08:27:11;2.92;;;1.10;;
53833;SDS011;39735;51.432;5.482;2022-07-06T08:29:36;5.25;;;0.65;;
53833;SDS011;39735;51.432;5.482;2022-07-06T08:32:02;8.13;;;0.82;;
53833;SDS011;39735;51.432;5.482;2022-07-06T08:34:27;3.92;;;1.30;;
53833;SDS011;39735;51.432;5.482;2022-07-06T08:36:53;2.38;;;0.85;;
53833;SDS011;39735;51.432;5.482;2022-07-06T08:39:18;1.23;;;0.30;;
53833;SDS011;39735;51.432;5.482;2022-07-06T08:41:44;2.90;;;0.28;;
53833;SDS011;39735;51.432;5.482;2022-07-06T08:44:12;0.60;;;0.55;;
53833;SDS011;39735;51.432;5.482;2022-07-06T08:46:38;4.40;;;0.40;;
53833;SDS011;39735;51.432;5.482;2022-07-06T08:49:08;4.53;;;0.45;;
53833;SDS011;39735;51.432;5.482;2022-07-06T08:51:37;11.98;;;0.90;;
53833;SDS011;39735;51.432;5.482;2022-07-06T08:54:03;4.90;;;0.45;;
53833;SDS011;39735;51.432;5.482;2022-07-06T08:56:29;2.50;;;0.30;;
53833;SDS011;39735;51.432;5.482;2022-07-06T08:58:54;3.25;;;0.43;;
53833;SDS011;39735;51.432;5.482;2022-07-06T09:01:20;12.15;;;1.95;;
53833;SDS011;39735;51.432;5.482;2022-07-06T09:03:46;4.07;;;0.68;;
53833;SDS011;39735;51.432;5.482;2022-07-06T09:06:16;1.55;;;0.40;;
53833;SDS011;39735;51.432;5.482;2022-07-06T09:08:41;3.40;;;1.05;;
53833;SDS011;39735;51.432;5.482;2022-07-06T09:11:08;1.60;;;0.35;;
53833;SDS011;39735;51.432;5.482;2022-07-06T09:13:33;1.25;;;0.30;;
53833;SDS011;39735;51.432;5.482;2022-07-06T09:16:12;7.97;;;1.50;;
53833;SDS011;39735;51.432;5.482;2022-07-06T09:18:38;7.70;;;0.50;;
53833;SDS011;39735;51.432;5.482;2022-07-06T09:21:07;6.22;;;2.33;;
53833;SDS011;39735;51.432;5.482;2022-07-06T09:23:33;2.25;;;0.40;;
53833;SDS011;39735;51.432;5.482;2022-07-06T09:26:01;4.53;;;0.93;;
53833;SDS011;39735;51.432;5.482;2022-07-06T09:28:46;9.35;;;1.05;;
53833;SDS011;39735;51.432;5.482;2022-07-06T09:31:12;8.15;;;1.88;;
53833;SDS011;39735;51.432;5.482;2022-07-06T09:33:38;5.80;;;1.23;;
53833;SDS011;39735;51.432;5.482;2022-07-06T09:36:04;5.40;;;0.88;;
53833;SDS011;39735;51.432;5.482;2022-07-06T09:38:30;8.57;;;0.65;;
53833;SDS011;39735;51.432;5.482;2022-07-06T09:40:56;3.20;;;0.43;;
53833;SDS011;39735;51.432;5.482;2022-07-06T09:43:22;1.60;;;0.55;;
53833;SDS011;39735;51.432;5.482;2022-07-06T09:45:49;0.10;;;0.05;;
53833;SDS011;39735;51.432;5.482;2022-07-06T09:48:16;8.18;;;0.60;;
53833;SDS011;39735;51.432;5.482;2022-07-06T09:50:49;2.53;;;0.82;;
53833;SDS011;39735;51.432;5.482;2022-07-06T09:53:16;0.70;;;0.60;;
53833;SDS011;39735;51.432;5.482;2022-07-06T09:55:49;4.43;;;1.00;;
53833;SDS011;39735;51.432;5.482;2022-07-06T09:58:16;3.93;;;0.73;;
53833;SDS011;39735;51.432;5.482;2022-07-06T10:00:42;0.20;;;0.20;;
53833;SDS011;39735;51.432;5.482;2022-07-06T10:03:09;3.00;;;0.63;;
53833;SDS011;39735;51.432;5.482;2022-07-06T10:05:39;3.33;;;0.40;;
53833;SDS011;39735;51.432;5.482;2022-07-06T10:08:06;5.07;;;0.65;;
53833;SDS011;39735;51.432;5.482;2022-07-06T10:10:34;2.35;;;0.80;;
53833;SDS011;39735;51.432;5.482;2022-07-06T10:13:00;1.40;;;0.52;;
53833;SDS011;39735;51.432;5.482;2022-07-06T10:15:29;6.80;;;0.30;;
53833;SDS011;39735;51.432;5.482;2022-07-06T10:17:58;5.22;;;0.28;;
53833;SDS011;39735;51.432;5.482;2022-07-06T10:20:25;1.73;;;0.38;;
53833;SDS011;39735;51.432;5.482;2022-07-06T10:22:53;7.05;;;0.47;;
53833;SDS011;39735;51.432;5.482;2022-07-06T10:25:19;5.18;;;0.77;;
53833;SDS011;39735;51.432;5.482;2022-07-06T10:27:45;9.10;;;0.40;;
53833;SDS011;39735;51.432;5.482;2022-07-06T10:30:12;1.20;;;0.40;;
53833;SDS011;39735;51.432;5.482;2022-07-06T10:32:39;2.42;;;0.60;;
53833;SDS011;39735;51.432;5.482;2022-07-06T10:35:06;10.55;;;2.38;;
53833;SDS011;39735;51.432;5.482;2022-07-06T10:37:32;5.07;;;0.38;;
53833;SDS011;39735;51.432;5.482;2022-07-06T10:39:58;4.55;;;0.60;;
53833;SDS011;39735;51.432;5.482;2022-07-06T10:42:52;3.65;;;0.35;;
53833;SDS011;39735;51.432;5.482;2022-07-06T10:53:15;4.47;;;0.73;;
53833;SDS011;39735;51.432;5.482;2022-07-06T10:55:48;0.17;;;0.15;;
53833;SDS011;39735;51.432;5.482;2022-07-06T10:58:36;1.85;;;0.60;;
53833;SDS011;39735;51.432;5.482;2022-07-06T11:01:02;1.08;;;0.30;;
53833;SDS011;39735;51.432;5.482;2022-07-06T11:08:42;1.02;;;0.30;;
53833;SDS011;39735;51.432;5.482;2022-07-06T11:11:16;1.95;;;0.88;;
53833;SDS011;39735;51.432;5.482;2022-07-06T11:13:44;1.77;;;0.47;;
53833;SDS011;39735;51.432;5.482;2022-07-06T11:16:20;7.70;;;0.60;;
53833;SDS011;39735;51.432;5.482;2022-07-06T11:18:48;10.25;;;1.13;;
53833;SDS011;39735;51.432;5.482;2022-07-06T11:23:40;3.80;;;1.20;;
53833;SDS011;39735;51.432;5.482;2022-07-06T11:26:06;3.03;;;0.55;;
53833;SDS011;39735;51.432;5.482;2022-07-06T11:28:31;6.93;;;0.60;;
53833;SDS011;39735;51.432;5.482;2022-07-06T11:30:57;5.95;;;0.52;;
53833;SDS011;39735;51.432;5.482;2022-07-06T11:33:32;3.42;;;0.70;;
53833;SDS011;39735;51.432;5.482;2022-07-06T11:36:17;1.85;;;0.50;;
53833;SDS011;39735;51.432;5.482;2022-07-06T11:38:44;0.20;;;0.20;;
53833;SDS011;39735;51.432;5.482;2022-07-06T11:41:10;0.25;;;0.25;;
53833;SDS011;39735;51.432;5.482;2022-07-06T11:43:38;5.43;;;0.40;;
53833;SDS011;39735;51.432;5.482;2022-07-06T11:46:17;3.28;;;0.30;;
53833;SDS011;39735;51.432;5.482;2022-07-06T11:48:47;4.28;;;0.55;;
53833;SDS011;39735;51.432;5.482;2022-07-06T11:51:13;6.65;;;0.22;;
53833;SDS011;39735;51.432;5.482;2022-07-06T11:53:42;6.82;;;2.60;;
53833;SDS011;39735;51.432;5.482;2022-07-06T11:56:10;1.13;;;0.47;;
53833;SDS011;39735;51.432;5.482;2022-07-06T11:58:35;3.53;;;0.65;;
53833;SDS011;39735;51.432;5.482;2022-07-06T12:01:07;5.05;;;0.95;;
53833;SDS011;39735;51.432;5.482;2022-07-06T12:03:34;1.92;;;1.73;;
53833;SDS011;39735;51.432;5.482;2022-07-06T12:06:03;3.45;;;0.43;;
53833;SDS011;39735;51.432;5.482;2022-07-06T12:08:30;5.53;;;0.60;;
53833;SDS011;39735;51.432;5.482;2022-07-06T12:10:55;2.05;;;0.73;;
53833;SDS011;39735;51.432;5.482;2022-07-06T12:13:22;4.22;;;0.70;;
53833;SDS011;39735;51.432;5.482;2022-07-06T12:15:47;10.77;;;0.70;;
53833;SDS011;39735;51.432;5.482;2022-07-06T12:18:13;3.90;;;0.85;;
53833;SDS011;39735;51.432;5.482;2022-07-06T12:20:38;7.65;;;1.33;;
53833;SDS011;39735;51.432;5.482;2022-07-06T12:23:04;11.88;;;1.02;;
53833;SDS011;39735;51.432;5.482;2022-07-06T12:25:33;3.28;;;0.85;;
53833;SDS011;39735;51.432;5.482;2022-07-06T12:28:00;2.17;;;0.65;;
53833;SDS011;39735;51.432;5.482;2022-07-06T12:30:25;6.53;;;0.90;;
53833;SDS011;39735;51.432;5.482;2022-07-06T12:38:11;2.05;;;0.50;;
53833;SDS011;39735;51.432;5.482;2022-07-06T12:40:37;4.80;;;0.60;;
53833;SDS011;39735;51.432;5.482;2022-07-06T12:43:03;5.07;;;0.50;;
53833;SDS011;39735;51.432;5.482;2022-07-06T12:45:29;7.70;;;0.88;;
53833;SDS011;39735;51.432;5.482;2022-07-06T12:50:30;2.80;;;0.35;;
53833;SDS011;39735;51.432;5.482;2022-07-06T12:52:59;20.17;;;1.02;;
53833;SDS011;39735;51.432;5.482;2022-07-06T12:55:26;10.55;;;1.20;;
53833;SDS011;39735;51.432;5.482;2022-07-06T12:57:53;4.28;;;0.77;;
53833;SDS011;39735;51.432;5.482;2022-07-06T13:00:19;4.47;;;1.02;;
53833;SDS011;39735;51.432;5.482;2022-07-06T13:02:47;3.97;;;1.10;;
53833;SDS011;39735;51.432;5.482;2022-07-06T13:05:22;7.68;;;1.30;;
53833;SDS011;39735;51.432;5.482;2022-07-06T13:07:52;3.20;;;1.30;;
53833;SDS011;39735;51.432;5.482;2022-07-06T13:10:19;14.20;;;3.63;;
53833;SDS011;39735;51.432;5.482;2022-07-06T13:12:44;15.30;;;0.70;;
53833;SDS011;39735;51.432;5.482;2022-07-06T13:15:10;3.20;;;0.85;;
53833;SDS011;39735;51.432;5.482;2022-07-06T13:17:36;4.97;;;0.85;;
53833;SDS011;39735;51.432;5.482;2022-07-06T13:20:07;4.53;;;0.40;;
53833;SDS011;39735;51.432;5.482;2022-07-06T13:22:34;1.00;;;0.43;;
53833;SDS011;39735;51.432;5.482;2022-07-06T13:25:00;2.85;;;0.17;;
53833;SDS011;39735;51.432;5.482;2022-07-06T13:27:25;4.00;;;0.50;;
53833;SDS011;39735;51.432;5.482;2022-07-06T13:29:51;4.40;;;1.02;;
53833;SDS011;39735;51.432;5.482;2022-07-06T13:32:16;2.28;;;0.65;;
53833;SDS011;39735;51.432;5.482;2022-07-06T13:34:42;7.05;;;0.70;;
53833;SDS011;39735;51.432;5.482;2022-07-06T13:37:07;6.53;;;0.65;;
53833;SDS011;39735;51.432;5.482;2022-07-06T13:39:33;2.90;;;0.85;;
53833;SDS011;39735;51.432;5.482;2022-07-06T13:41:58;14.90;;;0.80;;
53833;SDS011;39735;51.432;5.482;2022-07-06T13:44:24;15.98;;;1.75;;
53833;SDS011;39735;51.432;5.482;2022-07-06T13:46:49;13.05;;;0.98;;
53833;SDS011;39735;51.432;5.482;2022-07-06T13:49:15;9.77;;;0.82;;
53833;SDS011;39735;51.432;5.482;2022-07-06T13:51:40;7.82;;;0.70;;
53833;SDS011;39735;51.432;5.482;2022-07-06T13:54:06;1.67;;;0.77;;
53833;SDS011;39735;51.432;5.482;2022-07-06T13:56:32;4.65;;;1.67;;
53833;SDS011;39735;51.432;5.482;2022-07-06T13:58:57;5.75;;;0.50;;
53833;SDS011;39735;51.432;5.482;2022-07-06T14:01:22;7.32;;;0.93;;
53833;SDS011;39735;51.432;5.482;2022-07-06T14:03:48;9.85;;;0.90;;
53833;SDS011;39735;51.432;5.482;2022-07-06T14:06:14;12.50;;;0.80;;
53833;SDS011;39735;51.432;5.482;2022-07-06T14:08:41;11.60;;;0.50;;
53833;SDS011;39735;51.432;5.482;2022-07-06T14:11:07;3.03;;;1.13;;
53833;SDS011;39735;51.432;5.482;2022-07-06T14:13:33;7.15;;;1.05;;
53833;SDS011;39735;51.432;5.482;2022-07-06T14:15:59;0.75;;;0.52;;
53833;SDS011;39735;51.432;5.482;2022-07-06T14:18:24;5.15;;;0.68;;
53833;SDS011;39735;51.432;5.482;2022-07-06T14:20:50;7.80;;;0.80;;
53833;SDS011;39735;51.432;5.482;2022-07-06T14:23:16;3.83;;;0.98;;
53833;SDS011;39735;51.432;5.482;2022-07-06T14:25:43;11.63;;;1.13;;
53833;SDS011;39735;51.432;5.482;2022-07-06T14:28:11;11.63;;;1.42;;
53833;SDS011;39735;51.432;5.482;2022-07-06T14:30:41;5.78;;;1.20;;
53833;SDS011;39735;51.432;5.482;2022-07-06T14:33:09;2.17;;;0.90;;
53833;SDS011;39735;51.432;5.482;2022-07-06T14:35:35;7.13;;;0.73;;
53833;SDS011;39735;51.432;5.482;2022-07-06T14:38:05;2.38;;;0.80;;
53833;SDS011;39735;51.432;5.482;2022-07-06T14:40:32;10.95;;;1.40;;
53833;SDS011;39735;51.432;5.482;2022-07-06T14:42:58;8.88;;;0.77;;
53833;SDS011;39735;51.432;5.482;2022-07-06T14:45:24;13.20;;;0.77;;
53833;SDS011;39735;51.432;5.482;2022-07-06T14:47:49;3.55;;;0.47;;
53833;SDS011;39735;51.432;5.482;2022-07-06T14:50:15;6.30;;;1.25;;
53833;SDS011;39735;51.432;5.482;2022-07-06T14:52:40;3.75;;;0.65;;
53833;SDS011;39735;51.432;5.482;2022-07-06T14:55:06;2.28;;;0.77;;
53833;SDS011;39735;51.432;5.482;2022-07-06T14:57:31;3.28;;;0.50;;
53833;SDS011;39735;51.432;5.482;2022-07-06T14:59:57;2.83;;;0.63;;
53833;SDS011;39735;51.432;5.482;2022-07-06T15:02:22;8.48;;;0.95;;
53833;SDS011;39735;51.432;5.482;2022-07-06T15:04:48;5.75;;;0.77;;
53833;SDS011;39735;51.432;5.482;2022-07-06T15:07:13;6.88;;;0.88;;